sensor_id;sensor_type;location;lat;lon;timestamp;pressure;altitude;pressure_sealevel;temperature;humidity
44127;BME280;29786;50.798;7.302;2023-01-25T00:00:08;101140;;;1.09;100
44127;BME280;29786;50.798;7.302;2023-01-25T00:01:08;101140;;;1.07;100
44127;BME280;29786;50.798;7.302;2023-01-25T00:02:09;101140;;;1.02;100
44127;BME280;29786;50.798;7.302;2023-01-25T00:03:09;101140;;;1.03;100
44127;BME280;29786;50.798;7.302;2023-01-25T00:04:09;101140;;;0.99;100
44127;BME280;29786;50.798;7.302;2023-01-25T00:05:08;101140;;;1.04;100
44127;BME280;29786;50.798;7.302;2023-01-25T00:06:08;101140;;;1.04;100
44127;BME280;29786;50.798;7.302;2023-01-25T00:07:08;101130;;;1.03;100
44127;BME280;29786;50.798;7.302;2023-01-25T00:08:08;101130;;;1.04;100
44127;BME280;29786;50.798;7.302;2023-01-25T00:09:09;101130;;;1.2;100
44127;BME280;29786;50.798;7.302;2023-01-25T00:10:09;101130;;;1.25;100
44127;BME280;29786;50.798;7.302;2023-01-25T00:11:07;101130;;;1.11;100
44127;BME280;29786;50.798;7.302;2023-01-25T00:12:08;101130;;;1.08;100
44127;BME280;29786;50.798;7.302;2023-01-25T00:13:07;101130;;;1.17;100
44127;BME280;29786;50.798;7.302;2023-01-25T00:14:09;101130;;;1.29;100
44127;BME280;29786;50.798;7.302;2023-01-25T00:15:08;101130;;;1.2;100
44127;BME280;29786;50.798;7.302;2023-01-25T00:16:08;101130;;;1.36;100
44127;BME280;29786;50.798;7.302;2023-01-25T00:17:08;101130;;;1.33;100
44127;BME280;29786;50.798;7.302;2023-01-25T00:18:08;101140;;;1.21;100
44127;BME280;29786;50.798;7.302;2023-01-25T00:19:08;101130;;;1.24;100
44127;BME280;29786;50.798;7.302;2023-01-25T00:20:08;101130;;;1.31;100
44127;BME280;29786;50.798;7.302;2023-01-25T00:21:16;101130;;;1.43;100
44127;BME280;29786;50.798;7.302;2023-01-25T00:22:08;101130;;;1.41;100
44127;BME280;29786;50.798;7.302;2023-01-25T00:23:07;101130;;;1.31;100
44127;BME280;29786;50.798;7.302;2023-01-25T00:24:09;101130;;;1.29;100
44127;BME280;29786;50.798;7.302;2023-01-25T00:25:08;101130;;;1.31;100
44127;BME280;29786;50.798;7.302;2023-01-25T00:26:09;101130;;;1.33;100
44127;BME280;29786;50.798;7.302;2023-01-25T00:27:08;101130;;;1.35;100
44127;BME280;29786;50.798;7.302;2023-01-25T00:28:08;101120;;;1.38;100
44127;BME280;29786;50.798;7.302;2023-01-25T00:29:09;101130;;;1.39;100
44127;BME280;29786;50.798;7.302;2023-01-25T00:30:08;101120;;;1.36;100
44127;BME280;29786;50.798;7.302;2023-01-25T00:31:08;101120;;;1.4;100
44127;BME280;29786;50.798;7.302;2023-01-25T00:32:26;101120;;;1.37;100
44127;BME280;29786;50.798;7.302;2023-01-25T00:33:38;101120;;;1.42;100
44127;BME280;29786;50.798;7.302;2023-01-25T00:34:36;101120;;;1.35;100
44127;BME280;29786;50.798;7.302;2023-01-25T00:35:10;101120;;;1.42;100
44127;BME280;29786;50.798;7.302;2023-01-25T00:36:40;101110;;;1.37;100
44127;BME280;29786;50.798;7.302;2023-01-25T00:37:11;101110;;;1.3;100
44127;BME280;29786;50.798;7.302;2023-01-25T00:39:10;101110;;;1.21;100
44127;BME280;29786;50.798;7.302;2023-01-25T00:40:09;101110;;;1.25;100
44127;BME280;29786;50.798;7.302;2023-01-25T00:41:07;101110;;;1.25;100
44127;BME280;29786;50.798;7.302;2023-01-25T00:42:09;101110;;;1.29;100
44127;BME280;29786;50.798;7.302;2023-01-25T00:43:08;101110;;;1.25;100
44127;BME280;29786;50.798;7.302;2023-01-25T00:44:08;101110;;;1.3;100
44127;BME280;29786;50.798;7.302;2023-01-25T00:45:09;101110;;;1.26;100
44127;BME280;29786;50.798;7.302;2023-01-25T00:46:08;101110;;;1.22;100
44127;BME280;29786;50.798;7.302;2023-01-25T00:47:08;101110;;;1.12;100
44127;BME280;29786;50.798;7.302;2023-01-25T00:48:08;101110;;;1.21;100
44127;BME280;29786;50.798;7.302;2023-01-25T00:49:18;101110;;;1.09;100
44127;BME280;29786;50.798;7.302;2023-01-25T00:50:08;101100;;;1.13;100
44127;BME280;29786;50.798;7.302;2023-01-25T00:51:08;101100;;;1.15;100
44127;BME280;29786;50.798;7.302;2023-01-25T00:52:08;101100;;;1.25;100
44127;BME280;29786;50.798;7.302;2023-01-25T00:53:08;101110;;;1.29;100
44127;BME280;29786;50.798;7.302;2023-01-25T00:54:08;101100;;;1.29;100
44127;BME280;29786;50.798;7.302;2023-01-25T00:55:09;101100;;;1.24;100
44127;BME280;29786;50.798;7.302;2023-01-25T00:56:08;101100;;;1.29;100
44127;BME280;29786;50.798;7.302;2023-01-25T00:57:08;101100;;;1.21;100
44127;BME280;29786;50.798;7.302;2023-01-25T00:58:09;101100;;;1.05;100
44127;BME280;29786;50.798;7.302;2023-01-25T00:59:08;101100;;;1.02;100
44127;BME280;29786;50.798;7.302;2023-01-25T01:00:08;101100;;;1.04;100
44127;BME280;29786;50.798;7.302;2023-01-25T01:01:08;101100;;;1.1;100
44127;BME280;29786;50.798;7.302;2023-01-25T01:02:08;101100;;;1.15;100
44127;BME280;29786;50.798;7.302;2023-01-25T01:03:07;101100;;;1.16;100
44127;BME280;29786;50.798;7.302;2023-01-25T01:04:08;101100;;;1.16;100
44127;BME280;29786;50.798;7.302;2023-01-25T01:05:07;101100;;;1.19;100
44127;BME280;29786;50.798;7.302;2023-01-25T01:06:08;101100;;;1.13;100
44127;BME280;29786;50.798;7.302;2023-01-25T01:07:09;101100;;;1.08;100
44127;BME280;29786;50.798;7.302;2023-01-25T01:08:08;101100;;;1.1;100
44127;BME280;29786;50.798;7.302;2023-01-25T01:09:12;101100;;;1.03;100
44127;BME280;29786;50.798;7.302;2023-01-25T01:10:08;101100;;;0.98;100
44127;BME280;29786;50.798;7.302;2023-01-25T01:11:10;101090;;;1;100
44127;BME280;29786;50.798;7.302;2023-01-25T01:12:08;101090;;;1.05;100
44127;BME280;29786;50.798;7.302;2023-01-25T01:13:08;101090;;;1.08;100
44127;BME280;29786;50.798;7.302;2023-01-25T01:14:08;101090;;;1.15;100
44127;BME280;29786;50.798;7.302;2023-01-25T01:15:08;101100;;;1.01;100
44127;BME280;29786;50.798;7.302;2023-01-25T01:16:09;101090;;;0.97;100
44127;BME280;29786;50.798;7.302;2023-01-25T01:17:08;101100;;;0.99;100
44127;BME280;29786;50.798;7.302;2023-01-25T01:18:08;101090;;;0.99;100
44127;BME280;29786;50.798;7.302;2023-01-25T01:19:08;101090;;;1.14;100
44127;BME280;29786;50.798;7.302;2023-01-25T01:20:08;101090;;;1.08;100
44127;BME280;29786;50.798;7.302;2023-01-25T01:21:08;101090;;;1.14;100
44127;BME280;29786;50.798;7.302;2023-01-25T01:22:09;101090;;;1.14;100
44127;BME280;29786;50.798;7.302;2023-01-25T01:23:08;101090;;;1.19;100
44127;BME280;29786;50.798;7.302;2023-01-25T01:24:08;101090;;;1.19;100
44127;BME280;29786;50.798;7.302;2023-01-25T01:25:08;101090;;;1.27;100
44127;BME280;29786;50.798;7.302;2023-01-25T01:26:09;101090;;;1.35;100
44127;BME280;29786;50.798;7.302;2023-01-25T01:27:08;101090;;;1.25;100
44127;BME280;29786;50.798;7.302;2023-01-25T01:28:07;101090;;;1.25;100
44127;BME280;29786;50.798;7.302;2023-01-25T01:29:07;101090;;;1.25;100
44127;BME280;29786;50.798;7.302;2023-01-25T01:30:08;101080;;;1.15;100
44127;BME280;29786;50.798;7.302;2023-01-25T01:31:10;101090;;;1.2;100
44127;BME280;29786;50.798;7.302;2023-01-25T01:32:08;101090;;;1.19;100
44127;BME280;29786;50.798;7.302;2023-01-25T01:33:07;101090;;;1.23;100
44127;BME280;29786;50.798;7.302;2023-01-25T01:34:09;101090;;;1.15;100
44127;BME280;29786;50.798;7.302;2023-01-25T01:35:08;101090;;;1.2;100
44127;BME280;29786;50.798;7.302;2023-01-25T01:36:09;101090;;;1.23;100
44127;BME280;29786;50.798;7.302;2023-01-25T01:37:08;101090;;;1.27;100
44127;BME280;29786;50.798;7.302;2023-01-25T01:38:08;101090;;;1.25;100
44127;BME280;29786;50.798;7.302;2023-01-25T01:39:07;101090;;;1.24;100
44127;BME280;29786;50.798;7.302;2023-01-25T01:40:09;101090;;;1.13;100
44127;BME280;29786;50.798;7.302;2023-01-25T01:41:08;101090;;;1.04;100
44127;BME280;29786;50.798;7.302;2023-01-25T01:42:08;101090;;;1.03;100
44127;BME280;29786;50.798;7.302;2023-01-25T01:43:13;101090;;;1.12;100
44127;BME280;29786;50.798;7.302;2023-01-25T01:44:12;101090;;;1.17;100
44127;BME280;29786;50.798;7.302;2023-01-25T01:46:12;101090;;;1.21;100
44127;BME280;29786;50.798;7.302;2023-01-25T01:46:14;101090;;;1.17;100
44127;BME280;29786;50.798;7.302;2023-01-25T01:47:11;101090;;;1.19;100
44127;BME280;29786;50.798;7.302;2023-01-25T01:48:28;101090;;;1.09;100
44127;BME280;29786;50.798;7.302;2023-01-25T01:49:25;101090;;;1.23;100
44127;BME280;29786;50.798;7.302;2023-01-25T01:50:14;101090;;;1.05;100
44127;BME280;29786;50.798;7.302;2023-01-25T01:51:14;101090;;;1.15;100
44127;BME280;29786;50.798;7.302;2023-01-25T01:52:09;101090;;;1.12;100
44127;BME280;29786;50.798;7.302;2023-01-25T01:53:08;101090;;;0.98;100
44127;BME280;29786;50.798;7.302;2023-01-25T01:55:09;101090;;;1.04;100
44127;BME280;29786;50.798;7.302;2023-01-25T01:55:14;101090;;;1.03;100
44127;BME280;29786;50.798;7.302;2023-01-25T01:56:09;101090;;;1;100
44127;BME280;29786;50.798;7.302;2023-01-25T01:57:09;101090;;;0.96;100
44127;BME280;29786;50.798;7.302;2023-01-25T01:58:08;101090;;;0.91;100
44127;BME280;29786;50.798;7.302;2023-01-25T01:59:09;101090;;;0.93;100
44127;BME280;29786;50.798;7.302;2023-01-25T02:00:09;101090;;;1.05;100
44127;BME280;29786;50.798;7.302;2023-01-25T02:01:09;101090;;;0.94;100
44127;BME280;29786;50.798;7.302;2023-01-25T02:02:09;101090;;;0.96;100
44127;BME280;29786;50.798;7.302;2023-01-25T02:03:08;101090;;;1.05;100
44127;BME280;29786;50.798;7.302;2023-01-25T02:04:07;101090;;;1.1;100
44127;BME280;29786;50.798;7.302;2023-01-25T02:05:10;101080;;;1.16;100
44127;BME280;29786;50.798;7.302;2023-01-25T02:06:12;101080;;;1.09;100
44127;BME280;29786;50.798;7.302;2023-01-25T02:07:10;101080;;;1.08;100
44127;BME280;29786;50.798;7.302;2023-01-25T02:08:09;101080;;;1.11;100
44127;BME280;29786;50.798;7.302;2023-01-25T02:09:07;101080;;;1.13;100
44127;BME280;29786;50.798;7.302;2023-01-25T02:10:08;101080;;;1.14;100
44127;BME280;29786;50.798;7.302;2023-01-25T02:11:07;101080;;;1.05;100
44127;BME280;29786;50.798;7.302;2023-01-25T02:12:06;101080;;;1.04;100
44127;BME280;29786;50.798;7.302;2023-01-25T02:13:08;101080;;;1.21;100
44127;BME280;29786;50.798;7.302;2023-01-25T02:14:08;101070;;;1.24;100
44127;BME280;29786;50.798;7.302;2023-01-25T02:15:08;101080;;;1.29;100
44127;BME280;29786;50.798;7.302;2023-01-25T02:16:13;101080;;;1.27;100
44127;BME280;29786;50.798;7.302;2023-01-25T02:17:09;101080;;;1.22;100
44127;BME280;29786;50.798;7.302;2023-01-25T02:18:08;101080;;;1.13;100
44127;BME280;29786;50.798;7.302;2023-01-25T02:19:08;101070;;;1.1;100
44127;BME280;29786;50.798;7.302;2023-01-25T02:20:15;101080;;;1.04;100
44127;BME280;29786;50.798;7.302;2023-01-25T02:21:08;101080;;;1.02;100
44127;BME280;29786;50.798;7.302;2023-01-25T02:22:09;101080;;;0.9;100
44127;BME280;29786;50.798;7.302;2023-01-25T02:23:18;101080;;;0.83;100
44127;BME280;29786;50.798;7.302;2023-01-25T02:24:11;101080;;;0.93;100
44127;BME280;29786;50.798;7.302;2023-01-25T02:25:08;101080;;;1.01;100
44127;BME280;29786;50.798;7.302;2023-01-25T02:26:08;101080;;;0.99;100
44127;BME280;29786;50.798;7.302;2023-01-25T02:27:07;101080;;;1.08;100
44127;BME280;29786;50.798;7.302;2023-01-25T02:28:12;101070;;;1.01;100
44127;BME280;29786;50.798;7.302;2023-01-25T02:29:07;101080;;;1.13;100
44127;BME280;29786;50.798;7.302;2023-01-25T02:30:08;101080;;;1.07;100
44127;BME280;29786;50.798;7.302;2023-01-25T02:31:08;101080;;;1.04;100
44127;BME280;29786;50.798;7.302;2023-01-25T02:32:07;101070;;;1.11;100
44127;BME280;29786;50.798;7.302;2023-01-25T02:33:08;101070;;;1.11;100
44127;BME280;29786;50.798;7.302;2023-01-25T02:34:08;101080;;;1.24;100
44127;BME280;29786;50.798;7.302;2023-01-25T02:35:16;101070;;;1.22;100
44127;BME280;29786;50.798;7.302;2023-01-25T02:36:15;101070;;;1.21;100
44127;BME280;29786;50.798;7.302;2023-01-25T02:37:12;101070;;;1.29;100
44127;BME280;29786;50.798;7.302;2023-01-25T02:38:08;101070;;;1.27;100
44127;BME280;29786;50.798;7.302;2023-01-25T02:39:11;101070;;;1.32;100
44127;BME280;29786;50.798;7.302;2023-01-25T02:40:08;101070;;;1.37;100
44127;BME280;29786;50.798;7.302;2023-01-25T02:41:09;101070;;;1.33;100
44127;BME280;29786;50.798;7.302;2023-01-25T02:42:08;101070;;;1.31;100
44127;BME280;29786;50.798;7.302;2023-01-25T02:43:08;101080;;;1.27;100
44127;BME280;29786;50.798;7.302;2023-01-25T02:44:10;101070;;;1.12;100
44127;BME280;29786;50.798;7.302;2023-01-25T02:45:08;101070;;;1.04;100
44127;BME280;29786;50.798;7.302;2023-01-25T02:46:19;101070;;;1.02;100
44127;BME280;29786;50.798;7.302;2023-01-25T02:47:08;101070;;;1;100
44127;BME280;29786;50.798;7.302;2023-01-25T02:48:07;101070;;;0.95;100
44127;BME280;29786;50.798;7.302;2023-01-25T02:49:08;101070;;;0.99;100
44127;BME280;29786;50.798;7.302;2023-01-25T02:50:08;101070;;;1.05;100
44127;BME280;29786;50.798;7.302;2023-01-25T02:51:08;101070;;;1.04;100
44127;BME280;29786;50.798;7.302;2023-01-25T02:52:08;101070;;;1.08;100
44127;BME280;29786;50.798;7.302;2023-01-25T02:53:08;101060;;;1.13;100
44127;BME280;29786;50.798;7.302;2023-01-25T02:54:08;101070;;;1.07;100
44127;BME280;29786;50.798;7.302;2023-01-25T02:55:08;101060;;;1.08;100
44127;BME280;29786;50.798;7.302;2023-01-25T02:56:07;101060;;;1.1;100
44127;BME280;29786;50.798;7.302;2023-01-25T02:57:08;101070;;;0.99;100
44127;BME280;29786;50.798;7.302;2023-01-25T02:58:09;101060;;;1.01;100
44127;BME280;29786;50.798;7.302;2023-01-25T02:59:08;101060;;;1.09;100
44127;BME280;29786;50.798;7.302;2023-01-25T03:00:08;101060;;;1.16;100
44127;BME280;29786;50.798;7.302;2023-01-25T03:01:08;101060;;;1.14;100
44127;BME280;29786;50.798;7.302;2023-01-25T03:02:08;101070;;;1.2;100
44127;BME280;29786;50.798;7.302;2023-01-25T03:03:07;101060;;;1.23;100
44127;BME280;29786;50.798;7.302;2023-01-25T03:04:08;101060;;;1.28;100
44127;BME280;29786;50.798;7.302;2023-01-25T03:05:08;101060;;;1.19;100
44127;BME280;29786;50.798;7.302;2023-01-25T03:06:07;101060;;;1.08;100
44127;BME280;29786;50.798;7.302;2023-01-25T03:07:07;101060;;;1.02;100
44127;BME280;29786;50.798;7.302;2023-01-25T03:08:08;101060;;;1.01;100
44127;BME280;29786;50.798;7.302;2023-01-25T03:09:09;101060;;;0.92;100
44127;BME280;29786;50.798;7.302;2023-01-25T03:10:08;101060;;;0.94;100
44127;BME280;29786;50.798;7.302;2023-01-25T03:11:09;101060;;;0.94;100
44127;BME280;29786;50.798;7.302;2023-01-25T03:12:08;101060;;;1.01;100
44127;BME280;29786;50.798;7.302;2023-01-25T03:13:08;101050;;;1.09;100
44127;BME280;29786;50.798;7.302;2023-01-25T03:14:08;101060;;;0.97;100
44127;BME280;29786;50.798;7.302;2023-01-25T03:15:08;101060;;;1.02;100
44127;BME280;29786;50.798;7.302;2023-01-25T03:16:09;101050;;;0.97;100
44127;BME280;29786;50.798;7.302;2023-01-25T03:17:08;101050;;;0.95;100
44127;BME280;29786;50.798;7.302;2023-01-25T03:18:07;101050;;;0.94;100
44127;BME280;29786;50.798;7.302;2023-01-25T03:19:07;101050;;;0.99;100
44127;BME280;29786;50.798;7.302;2023-01-25T03:20:09;101050;;;1.01;100
44127;BME280;29786;50.798;7.302;2023-01-25T03:21:08;101050;;;1.05;100
44127;BME280;29786;50.798;7.302;2023-01-25T03:22:08;101050;;;0.95;100
44127;BME280;29786;50.798;7.302;2023-01-25T03:23:08;101060;;;0.97;100
44127;BME280;29786;50.798;7.302;2023-01-25T03:24:08;101050;;;0.93;100
44127;BME280;29786;50.798;7.302;2023-01-25T03:25:08;101050;;;0.98;100
44127;BME280;29786;50.798;7.302;2023-01-25T03:26:12;101060;;;1.11;100
44127;BME280;29786;50.798;7.302;2023-01-25T03:27:07;101050;;;1.07;100
44127;BME280;29786;50.798;7.302;2023-01-25T03:28:07;101050;;;1.02;100
44127;BME280;29786;50.798;7.302;2023-01-25T03:29:08;101050;;;0.98;100
44127;BME280;29786;50.798;7.302;2023-01-25T03:30:08;101050;;;0.92;100
44127;BME280;29786;50.798;7.302;2023-01-25T03:31:09;101050;;;0.95;100
44127;BME280;29786;50.798;7.302;2023-01-25T03:32:07;101050;;;0.8;100
44127;BME280;29786;50.798;7.302;2023-01-25T03:33:08;101050;;;0.85;100
44127;BME280;29786;50.798;7.302;2023-01-25T03:34:08;101050;;;0.97;100
44127;BME280;29786;50.798;7.302;2023-01-25T03:35:08;101050;;;0.86;100
44127;BME280;29786;50.798;7.302;2023-01-25T03:36:10;101050;;;0.73;100
44127;BME280;29786;50.798;7.302;2023-01-25T03:37:10;101050;;;0.82;100
44127;BME280;29786;50.798;7.302;2023-01-25T03:38:09;101050;;;0.81;100
44127;BME280;29786;50.798;7.302;2023-01-25T03:39:09;101040;;;0.79;100
44127;BME280;29786;50.798;7.302;2023-01-25T03:40:09;101050;;;0.77;100
44127;BME280;29786;50.798;7.302;2023-01-25T03:41:07;101040;;;0.78;100
44127;BME280;29786;50.798;7.302;2023-01-25T03:42:08;101050;;;0.77;100
44127;BME280;29786;50.798;7.302;2023-01-25T03:43:06;101040;;;0.77;100
44127;BME280;29786;50.798;7.302;2023-01-25T03:44:08;101040;;;0.73;100
44127;BME280;29786;50.798;7.302;2023-01-25T03:45:08;101040;;;0.64;100
44127;BME280;29786;50.798;7.302;2023-01-25T03:46:09;101040;;;0.61;100
44127;BME280;29786;50.798;7.302;2023-01-25T03:47:08;101040;;;0.64;100
44127;BME280;29786;50.798;7.302;2023-01-25T03:48:08;101040;;;0.65;100
44127;BME280;29786;50.798;7.302;2023-01-25T03:49:07;101030;;;0.71;100
44127;BME280;29786;50.798;7.302;2023-01-25T03:50:08;101030;;;0.67;100
44127;BME280;29786;50.798;7.302;2023-01-25T03:51:08;101040;;;0.6;100
44127;BME280;29786;50.798;7.302;2023-01-25T03:52:08;101040;;;0.76;100
44127;BME280;29786;50.798;7.302;2023-01-25T03:53:07;101040;;;0.67;100
44127;BME280;29786;50.798;7.302;2023-01-25T03:54:08;101030;;;0.52;100
44127;BME280;29786;50.798;7.302;2023-01-25T03:55:08;101040;;;0.58;100
44127;BME280;29786;50.798;7.302;2023-01-25T03:56:09;101030;;;0.72;100
44127;BME280;29786;50.798;7.302;2023-01-25T03:57:08;101040;;;0.72;100
44127;BME280;29786;50.798;7.302;2023-01-25T03:58:09;101040;;;0.61;100
44127;BME280;29786;50.798;7.302;2023-01-25T03:59:09;101040;;;0.57;100
44127;BME280;29786;50.798;7.302;2023-01-25T04:00:08;101040;;;0.68;100
44127;BME280;29786;50.798;7.302;2023-01-25T04:01:08;101040;;;0.7;100
44127;BME280;29786;50.798;7.302;2023-01-25T04:02:08;101040;;;0.77;100
44127;BME280;29786;50.798;7.302;2023-01-25T04:03:08;101040;;;0.64;100
44127;BME280;29786;50.798;7.302;2023-01-25T04:04:08;101030;;;0.61;100
44127;BME280;29786;50.798;7.302;2023-01-25T04:05:08;101030;;;0.71;100
44127;BME280;29786;50.798;7.302;2023-01-25T04:06:07;101030;;;0.75;100
44127;BME280;29786;50.798;7.302;2023-01-25T04:07:08;101030;;;0.7;100
44127;BME280;29786;50.798;7.302;2023-01-25T04:08:08;101030;;;0.6;100
44127;BME280;29786;50.798;7.302;2023-01-25T04:09:09;101030;;;0.55;100
44127;BME280;29786;50.798;7.302;2023-01-25T04:10:08;101020;;;0.67;100
44127;BME280;29786;50.798;7.302;2023-01-25T04:11:08;101030;;;0.46;100
44127;BME280;29786;50.798;7.302;2023-01-25T04:12:08;101030;;;0.37;100
44127;BME280;29786;50.798;7.302;2023-01-25T04:13:08;101030;;;0.29;100
44127;BME280;29786;50.798;7.302;2023-01-25T04:14:09;101020;;;0.25;100
44127;BME280;29786;50.798;7.302;2023-01-25T04:15:08;101020;;;0.13;100
44127;BME280;29786;50.798;7.302;2023-01-25T04:16:08;101020;;;0.12;100
44127;BME280;29786;50.798;7.302;2023-01-25T04:17:08;101020;;;0.06;100
44127;BME280;29786;50.798;7.302;2023-01-25T04:18:08;101020;;;0.08;100
44127;BME280;29786;50.798;7.302;2023-01-25T04:19:08;101020;;;0.24;100
44127;BME280;29786;50.798;7.302;2023-01-25T04:20:08;101020;;;0.34;100
44127;BME280;29786;50.798;7.302;2023-01-25T04:21:07;101010;;;0.4;100
44127;BME280;29786;50.798;7.302;2023-01-25T04:22:08;101010;;;0.38;100
44127;BME280;29786;50.798;7.302;2023-01-25T04:23:08;101010;;;0.35;100
44127;BME280;29786;50.798;7.302;2023-01-25T04:24:08;101020;;;0.4;100
44127;BME280;29786;50.798;7.302;2023-01-25T04:25:08;101010;;;0.33;100
44127;BME280;29786;50.798;7.302;2023-01-25T04:26:09;101010;;;0.38;100
44127;BME280;29786;50.798;7.302;2023-01-25T04:27:08;101000;;;0.45;100
44127;BME280;29786;50.798;7.302;2023-01-25T04:29:08;101000;;;0.61;100
44127;BME280;29786;50.798;7.302;2023-01-25T04:30:08;101000;;;0.54;100
44127;BME280;29786;50.798;7.302;2023-01-25T04:31:08;101000;;;0.42;100
44127;BME280;29786;50.798;7.302;2023-01-25T04:32:07;100990;;;0.38;100
44127;BME280;29786;50.798;7.302;2023-01-25T04:33:09;101000;;;0.43;100
44127;BME280;29786;50.798;7.302;2023-01-25T04:34:08;101000;;;0.36;100
44127;BME280;29786;50.798;7.302;2023-01-25T04:35:08;101000;;;0.38;100
44127;BME280;29786;50.798;7.302;2023-01-25T04:36:08;101000;;;0.38;100
44127;BME280;29786;50.798;7.302;2023-01-25T04:37:08;100990;;;0.39;100
44127;BME280;29786;50.798;7.302;2023-01-25T04:38:08;101000;;;0.37;100
44127;BME280;29786;50.798;7.302;2023-01-25T04:39:09;101000;;;0.37;100
44127;BME280;29786;50.798;7.302;2023-01-25T04:40:08;100990;;;0.46;100
44127;BME280;29786;50.798;7.302;2023-01-25T04:41:08;100990;;;0.4;100
44127;BME280;29786;50.798;7.302;2023-01-25T04:42:08;100990;;;0.4;100
44127;BME280;29786;50.798;7.302;2023-01-25T04:43:09;100990;;;0.46;100
44127;BME280;29786;50.798;7.302;2023-01-25T04:44:08;100990;;;0.5;100
44127;BME280;29786;50.798;7.302;2023-01-25T04:45:08;100990;;;0.52;100
44127;BME280;29786;50.798;7.302;2023-01-25T04:46:08;100990;;;0.58;100
44127;BME280;29786;50.798;7.302;2023-01-25T04:47:08;100990;;;0.6;100
44127;BME280;29786;50.798;7.302;2023-01-25T04:48:10;100990;;;0.71;100
44127;BME280;29786;50.798;7.302;2023-01-25T04:49:08;100980;;;0.78;100
44127;BME280;29786;50.798;7.302;2023-01-25T04:50:08;100990;;;0.77;100
44127;BME280;29786;50.798;7.302;2023-01-25T04:51:08;100980;;;0.84;100
44127;BME280;29786;50.798;7.302;2023-01-25T04:52:07;100980;;;0.83;100
44127;BME280;29786;50.798;7.302;2023-01-25T04:53:08;100980;;;0.78;100
44127;BME280;29786;50.798;7.302;2023-01-25T04:54:08;100980;;;0.8;100
44127;BME280;29786;50.798;7.302;2023-01-25T04:55:08;100980;;;0.82;100
44127;BME280;29786;50.798;7.302;2023-01-25T04:56:08;100980;;;0.89;100
44127;BME280;29786;50.798;7.302;2023-01-25T04:57:08;100980;;;0.96;100
44127;BME280;29786;50.798;7.302;2023-01-25T04:58:08;100980;;;0.86;100
44127;BME280;29786;50.798;7.302;2023-01-25T04:59:09;100980;;;0.85;100
44127;BME280;29786;50.798;7.302;2023-01-25T05:00:08;100980;;;0.83;100
44127;BME280;29786;50.798;7.302;2023-01-25T05:01:08;100970;;;0.9;100
44127;BME280;29786;50.798;7.302;2023-01-25T05:02:08;100980;;;0.92;100
44127;BME280;29786;50.798;7.302;2023-01-25T05:03:08;100970;;;0.94;100
44127;BME280;29786;50.798;7.302;2023-01-25T05:04:08;100970;;;0.97;100
44127;BME280;29786;50.798;7.302;2023-01-25T05:05:08;100970;;;0.91;100
44127;BME280;29786;50.798;7.302;2023-01-25T05:06:08;100980;;;0.98;100
44127;BME280;29786;50.798;7.302;2023-01-25T05:07:08;100980;;;0.88;100
44127;BME280;29786;50.798;7.302;2023-01-25T05:08:08;100970;;;0.88;100
44127;BME280;29786;50.798;7.302;2023-01-25T05:09:08;100970;;;0.88;100
44127;BME280;29786;50.798;7.302;2023-01-25T05:10:08;100980;;;0.77;100
44127;BME280;29786;50.798;7.302;2023-01-25T05:11:09;100980;;;0.81;100
44127;BME280;29786;50.798;7.302;2023-01-25T05:12:07;100970;;;0.71;100
44127;BME280;29786;50.798;7.302;2023-01-25T05:13:08;100970;;;0.82;100
44127;BME280;29786;50.798;7.302;2023-01-25T05:14:08;100980;;;0.84;100
44127;BME280;29786;50.798;7.302;2023-01-25T05:15:08;100970;;;0.74;100
44127;BME280;29786;50.798;7.302;2023-01-25T05:16:09;100970;;;0.84;100
44127;BME280;29786;50.798;7.302;2023-01-25T05:17:08;100970;;;0.86;100
44127;BME280;29786;50.798;7.302;2023-01-25T05:18:08;100970;;;0.77;100
44127;BME280;29786;50.798;7.302;2023-01-25T05:19:08;100970;;;0.82;100
44127;BME280;29786;50.798;7.302;2023-01-25T05:20:09;100970;;;0.76;100
44127;BME280;29786;50.798;7.302;2023-01-25T05:21:08;100970;;;0.65;100
44127;BME280;29786;50.798;7.302;2023-01-25T05:22:12;100970;;;0.72;100
44127;BME280;29786;50.798;7.302;2023-01-25T05:23:08;100970;;;0.75;100
44127;BME280;29786;50.798;7.302;2023-01-25T05:24:08;100970;;;0.7;100
44127;BME280;29786;50.798;7.302;2023-01-25T05:25:08;100970;;;0.7;100
44127;BME280;29786;50.798;7.302;2023-01-25T05:26:08;100970;;;0.66;100
44127;BME280;29786;50.798;7.302;2023-01-25T05:27:08;100970;;;0.65;100
44127;BME280;29786;50.798;7.302;2023-01-25T05:28:08;100970;;;0.69;100
44127;BME280;29786;50.798;7.302;2023-01-25T05:29:08;100970;;;0.75;100
44127;BME280;29786;50.798;7.302;2023-01-25T05:30:08;100970;;;0.88;100
44127;BME280;29786;50.798;7.302;2023-01-25T05:31:08;100960;;;0.79;100
44127;BME280;29786;50.798;7.302;2023-01-25T05:32:09;100960;;;0.76;100
44127;BME280;29786;50.798;7.302;2023-01-25T05:33:08;100970;;;0.67;100
44127;BME280;29786;50.798;7.302;2023-01-25T05:34:08;100960;;;0.69;100
44127;BME280;29786;50.798;7.302;2023-01-25T05:35:08;100970;;;0.73;100
44127;BME280;29786;50.798;7.302;2023-01-25T05:36:08;100960;;;0.79;100
44127;BME280;29786;50.798;7.302;2023-01-25T05:37:07;100960;;;0.84;100
44127;BME280;29786;50.798;7.302;2023-01-25T05:38:07;100960;;;0.81;100
44127;BME280;29786;50.798;7.302;2023-01-25T05:39:08;100960;;;0.73;100
44127;BME280;29786;50.798;7.302;2023-01-25T05:40:10;100960;;;0.77;100
44127;BME280;29786;50.798;7.302;2023-01-25T05:41:08;100960;;;0.9;100
44127;BME280;29786;50.798;7.302;2023-01-25T05:42:10;100960;;;0.98;100